Cosco Aden — VRKF9 — position and weather

sailwx.info

Track history (hours):
 
Tides and Currents Weather Stations Pressure Air Temp Water Temp Dewpoint Dewpoint Depression Visibility Wind Speed Wind Dir Waves Ship Positions

Cosco Aden

Last reported at 2016-Nov-04 23:26 UTC. Time now 2016-Dec-10 05:04 UTC.
Position N 30°28' E 123°01'.
Warning: this ship's position is 35 days out of date.

Length 261 m; draft 12 m.

Type: Other ship. MMSI: 477765900.

Date/timePositionNaut miles runAvg speedWind from/ knotsBaromVisibWave heightAir tempDewpointWater temp
2016-Nov-04 23:26N 30°28' E 123°01'1616.2
2016-Nov-04 22:28N 30°28' E 122°42'  
2016-Nov-01 20:25N 24°42' E 119°21'1011.5
2016-Nov-01 19:33N 24°36' E 119°12'31110.3
2016-Oct-31 13:28N 22°20' E 114°08'0 0.0
2016-Oct-31 10:23N 22°20' E 114°08'3 3.2
2016-Oct-31 09:24N 22°18' E 114°05'14 1.1
2016-Oct-30 20:28N 22°27' E 113°54'0 0.0
2016-Oct-30 13:28N 22°27' E 113°54'0 0.0
2016-Oct-30 12:28N 22°27' E 113°54'0 0.0
2016-Oct-30 11:29N 22°27' E 113°54'0 0.0
2016-Oct-30 08:28N 22°27' E 113°54'0 0.0
2016-Oct-30 07:29N 22°27' E 113°54'342 9.5
2016-Oct-28 19:19N 22°33' E 120°04'14 4.9
2016-Oct-28 16:32N 22°34' E 120°19'0 0.0
2016-Oct-28 15:32N 22°34' E 120°19'0 0.0
2016-Oct-28 09:26N 22°34' E 120°19'0 0.0
2016-Oct-28 08:32N 22°34' E 120°19'0 0.0
2016-Oct-28 07:08N 22°34' E 120°19'121 8.9
2016-Oct-27 17:27N 24°35' E 120°24'  
Track history (hours):
 
Tides and Currents Weather Stations Pressure Air Temp Water Temp Dewpoint Dewpoint Depression Visibility Wind Speed Wind Dir Waves Ship Positions

Cosco Aden

Last reported at 2016-Nov-04 23:26 UTC. Time now 2016-Dec-10 05:04 UTC.
Position N 30°28' E 123°01'.
Warning: this ship's position is 35 days out of date.

Length 261 m; draft 12 m.

Type: Other ship. MMSI: 477765900.

Date/timePositionNaut miles runAvg speedWind from/ knotsBaromVisibWave heightAir tempDewpointWater temp
2016-Nov-04 23:26N 30°28' E 123°01'1616.2
2016-Nov-04 22:28N 30°28' E 122°42'  
2016-Nov-01 20:25N 24°42' E 119°21'1011.5
2016-Nov-01 19:33N 24°36' E 119°12'31110.3
2016-Oct-31 13:28N 22°20' E 114°08'0 0.0
2016-Oct-31 10:23N 22°20' E 114°08'3 3.2
2016-Oct-31 09:24N 22°18' E 114°05'14 1.1
2016-Oct-30 20:28N 22°27' E 113°54'0 0.0
2016-Oct-30 13:28N 22°27' E 113°54'0 0.0
2016-Oct-30 12:28N 22°27' E 113°54'0 0.0
2016-Oct-30 11:29N 22°27' E 113°54'0 0.0
2016-Oct-30 08:28N 22°27' E 113°54'0 0.0
2016-Oct-30 07:29N 22°27' E 113°54'342 9.5
2016-Oct-28 19:19N 22°33' E 120°04'14 4.9
2016-Oct-28 16:32N 22°34' E 120°19'0 0.0
2016-Oct-28 15:32N 22°34' E 120°19'0 0.0
2016-Oct-28 09:26N 22°34' E 120°19'0 0.0
2016-Oct-28 08:32N 22°34' E 120°19'0 0.0
2016-Oct-28 07:08N 22°34' E 120°19'121 8.9
2016-Oct-27 17:27N 24°35' E 120°24'  

Dump ship's entire track history